createdAt,value
2019-04-04T00:00:07.633Z,11.6
2019-04-04T00:04:57.695Z,11.6
2019-04-04T00:09:45.330Z,11.5
2019-04-04T00:14:32.841Z,11.5
2019-04-04T00:19:20.493Z,11.4
2019-04-04T00:24:09.160Z,11.4
2019-04-04T00:28:56.722Z,11.3
2019-04-04T00:33:43.843Z,11.2
2019-04-04T00:38:31.139Z,11.2
2019-04-04T00:43:20.923Z,11.2
2019-04-04T00:48:08.887Z,11.2
2019-04-04T00:52:55.800Z,11.1
2019-04-04T00:57:43.467Z,11
2019-04-04T01:02:30.831Z,11
2019-04-04T01:07:18.124Z,10.9
2019-04-04T01:12:05.151Z,10.9
2019-04-04T01:16:51.980Z,10.9
2019-04-04T01:21:39.600Z,10.8
2019-04-04T01:26:28.113Z,10.7
2019-04-04T01:31:15.534Z,10.7
2019-04-04T01:36:02.453Z,10.6
2019-04-04T01:40:49.870Z,10.6
2019-04-04T01:45:38.321Z,10.5
2019-04-04T01:50:25.465Z,10.4
2019-04-04T01:55:13.202Z,10.4
2019-04-04T02:00:00.058Z,10.3
2019-04-04T02:04:47.329Z,10.2
2019-04-04T02:09:34.758Z,10.1
2019-04-04T02:14:21.989Z,10.1
2019-04-04T02:19:09.940Z,10
2019-04-04T02:24:01.324Z,10
2019-04-04T02:28:49.808Z,9.9
2019-04-04T02:33:36.775Z,9.9
2019-04-04T02:38:27.192Z,9.8
2019-04-04T02:43:15.628Z,9.8
2019-04-04T02:48:03.008Z,9.7
2019-04-04T02:52:50.717Z,9.7
2019-04-04T02:57:41.048Z,9.6
2019-04-04T03:02:30.525Z,9.6
2019-04-04T03:07:18.268Z,9.5
2019-04-04T03:12:05.976Z,9.5
2019-04-04T03:16:56.227Z,9.4
2019-04-04T03:21:43.627Z,9.4
2019-04-04T03:26:30.911Z,9.3
2019-04-04T03:31:18.280Z,9.3
2019-04-04T03:36:05.913Z,9.3
2019-04-04T03:40:57.465Z,9.3
2019-04-04T03:45:44.777Z,9.3
2019-04-04T03:50:31.702Z,9.3
2019-04-04T03:55:19.435Z,9.2
2019-04-04T04:00:07.407Z,9.2
2019-04-04T04:04:54.973Z,9.2
2019-04-04T04:09:43.076Z,9.1
2019-04-04T04:14:30.638Z,9.1
2019-04-04T04:19:17.565Z,9
2019-04-04T04:24:04.770Z,9
2019-04-04T04:28:53.584Z,9
2019-04-04T04:33:41.134Z,9
2019-04-04T04:38:28.554Z,8.9
2019-04-04T04:43:16.252Z,8.9
2019-04-04T04:48:03.451Z,8.9
2019-04-04T04:52:51.279Z,8.9
2019-04-04T04:57:38.421Z,8.9
2019-04-04T05:02:26.134Z,8.9
2019-04-04T05:07:13.659Z,8.9
2019-04-04T05:12:02.558Z,8.9
2019-04-04T05:16:50.239Z,8.9
2019-04-04T05:21:38.049Z,8.9
2019-04-04T05:26:25.166Z,9
2019-04-04T05:31:13.159Z,9.1
2019-04-04T05:35:59.987Z,9.1
2019-04-04T05:40:47.168Z,9.2
2019-04-04T05:45:33.991Z,9.3
2019-04-04T05:50:21.758Z,9.4
2019-04-04T05:55:10.816Z,9.5
2019-04-04T05:59:58.406Z,9.6
2019-04-04T06:04:45.490Z,9.7
2019-04-04T06:09:32.467Z,9.8
2019-04-04T06:14:20.669Z,9.9
2019-04-04T06:19:08.436Z,10
2019-04-04T06:23:55.981Z,10.2
2019-04-04T06:28:44.473Z,10.2
2019-04-04T06:33:33.094Z,10.4
2019-04-04T06:38:23.495Z,10.5
2019-04-04T06:43:12.079Z,10.6
2019-04-04T06:47:59.272Z,10.7
2019-04-04T06:52:48.293Z,10.8
2019-04-04T06:57:38.397Z,11
2019-04-04T07:02:25.384Z,11.2
2019-04-04T07:07:13.116Z,11.4
2019-04-04T07:12:00.434Z,11.5
2019-04-04T07:16:47.974Z,11.7
2019-04-04T07:21:36.839Z,11.9
2019-04-04T07:26:24.288Z,12.1
2019-04-04T07:31:11.555Z,12.3
2019-04-04T07:35:59.326Z,12.5
2019-04-04T07:40:46.224Z,12.7
2019-04-04T07:45:33.027Z,12.9
2019-04-04T07:50:20.418Z,13.2
2019-04-04T07:55:10.032Z,13.4
2019-04-04T07:59:58.228Z,13.6
2019-04-04T08:04:46.006Z,13.8
2019-04-04T08:09:33.376Z,14
2019-04-04T08:14:20.707Z,14.2
2019-04-04T08:19:07.904Z,14.4
2019-04-04T08:23:55.529Z,14.7
2019-04-04T08:28:44.275Z,14.9
2019-04-04T08:33:31.934Z,15.1
2019-04-04T08:38:18.976Z,15.5
2019-04-04T08:43:06.030Z,15.8
2019-04-04T08:47:53.896Z,16
2019-04-04T08:52:41.111Z,16.2
2019-04-04T08:57:28.447Z,16.5
2019-04-04T09:02:15.385Z,16.8
2019-04-04T09:07:02.437Z,17.2
2019-04-04T09:11:51.393Z,17.4
2019-04-04T09:16:38.733Z,17.6
2019-04-04T09:21:26.736Z,17.7
2019-04-04T09:26:13.654Z,17.9
2019-04-04T09:31:00.714Z,18.1
2019-04-04T09:35:48.094Z,18.3
2019-04-04T09:40:35.820Z,18.5
2019-04-04T09:45:23.060Z,18.7
2019-04-04T09:50:10.741Z,18.9
2019-04-04T09:54:58.294Z,19
2019-04-04T09:59:45.608Z,19.2
2019-04-04T10:04:33.132Z,19.3
2019-04-04T10:09:20.506Z,19.5
2019-04-04T10:14:07.483Z,19.8
2019-04-04T10:18:54.817Z,20.1
2019-04-04T10:23:42.136Z,20.3
2019-04-04T10:28:30.686Z,20.2
2019-04-04T10:33:17.827Z,20.4
2019-04-04T10:38:04.903Z,20.5
2019-04-04T10:42:51.766Z,20.4
2019-04-04T10:47:40.048Z,20.7
2019-04-04T10:52:27.988Z,20.8
2019-04-04T10:57:15.295Z,21
2019-04-04T11:02:03.391Z,21.1
2019-04-04T11:06:50.822Z,21.2
2019-04-04T11:11:38.582Z,21.5
2019-04-04T11:16:30.365Z,21.5
2019-04-04T11:21:18.232Z,21.6
2019-04-04T11:26:05.663Z,21.6
2019-04-04T11:30:53.306Z,21.9
2019-04-04T11:35:40.875Z,22
2019-04-04T11:40:28.010Z,22.1
2019-04-04T11:45:15.704Z,22.4
2019-04-04T11:50:02.782Z,22.4
2019-04-04T11:54:51.738Z,22.5
2019-04-04T11:59:40.122Z,22.6
2019-04-04T12:04:27.383Z,22.9
2019-04-04T12:09:14.513Z,23
2019-04-04T12:14:02.181Z,23.1
2019-04-04T12:18:49.406Z,23.3
2019-04-04T12:23:36.249Z,23.4
2019-04-04T12:28:23.311Z,23.4
2019-04-04T12:33:11.375Z,23.7
2019-04-04T12:37:58.702Z,23.6
2019-04-04T12:42:45.664Z,23.8
2019-04-04T12:47:32.844Z,24
2019-04-04T12:52:19.925Z,24.1
2019-04-04T12:57:07.084Z,24.3
2019-04-04T13:01:54.842Z,24.4
2019-04-04T13:06:41.944Z,24.6
2019-04-04T13:11:29.609Z,24.6
2019-04-04T13:16:16.670Z,24.5
2019-04-04T13:21:03.858Z,24.5
2019-04-04T13:25:51.625Z,24.8
2019-04-04T13:30:39.017Z,24.8
2019-04-04T13:35:26.579Z,24.7
2019-04-04T13:40:14.133Z,24.8
2019-04-04T13:45:01.931Z,24.9
2019-04-04T13:49:49.302Z,25.2
2019-04-04T13:54:36.973Z,25.4
2019-04-04T13:59:24.353Z,25.5
2019-04-04T14:04:11.269Z,25.6
2019-04-04T14:08:58.233Z,26
2019-04-04T14:13:48.685Z,25.4
2019-04-04T14:18:39.399Z,25.6
2019-04-04T14:23:28.745Z,25.4
2019-04-04T14:28:16.085Z,25.6
2019-04-04T14:33:03.441Z,25.3
2019-04-04T14:37:51.261Z,25.2
2019-04-04T14:42:39.098Z,25
2019-04-04T14:47:26.452Z,24.8
2019-04-04T14:52:14.193Z,24.5
2019-04-04T14:57:03.771Z,24.6
2019-04-04T15:01:51.717Z,24.6
2019-04-04T15:06:39.017Z,24.4
2019-04-04T15:11:26.423Z,24.1
2019-04-04T15:16:14.071Z,23.9
2019-04-04T15:21:01.938Z,23.7
2019-04-04T15:25:48.986Z,23.5
2019-04-04T15:30:37.423Z,23.3
2019-04-04T15:35:25.413Z,23
2019-04-04T15:40:12.948Z,23
2019-04-04T15:44:59.899Z,22.7
2019-04-04T15:49:48.358Z,22.7
2019-04-04T15:54:35.889Z,22.5
2019-04-04T15:59:23.580Z,22.7
2019-04-04T16:04:12.374Z,22.7
2019-04-04T16:08:59.435Z,22.6
2019-04-04T16:13:46.857Z,22.4
2019-04-04T16:18:33.779Z,22.1
2019-04-04T16:23:22.614Z,22
2019-04-04T16:28:10.413Z,21.8
2019-04-04T16:33:03.967Z,21.9
2019-04-04T16:37:51.496Z,22
2019-04-04T16:42:39.923Z,21.6
2019-04-04T16:47:27.338Z,21.3
2019-04-04T16:52:16.642Z,21.1
2019-04-04T16:57:04.151Z,20.9
2019-04-04T17:01:52.072Z,20.8
2019-04-04T17:06:40.021Z,20.6
2019-04-04T17:11:27.495Z,20.3
2019-04-04T17:16:14.399Z,20.1
2019-04-04T17:21:01.401Z,19.9
2019-04-04T17:25:48.963Z,19.7
2019-04-04T17:30:38.064Z,19.7
2019-04-04T17:35:25.018Z,19.6
2019-04-04T17:40:13.636Z,19.4
2019-04-04T17:45:02.239Z,19.1
2019-04-04T17:49:50.234Z,18.7
2019-04-04T17:54:38.358Z,18.4
2019-04-04T17:59:25.503Z,18.3
2019-04-04T18:04:12.430Z,18.2
2019-04-04T18:09:01.470Z,18
2019-04-04T18:13:51.058Z,17.8
2019-04-04T18:18:38.228Z,17.6
2019-04-04T18:23:25.060Z,17.5
2019-04-04T18:28:13.414Z,17.4
2019-04-04T18:33:00.245Z,17.3
2019-04-04T18:37:47.302Z,17.1
2019-04-04T18:42:34.582Z,17
2019-04-04T18:47:21.641Z,16.9
2019-04-04T18:52:08.533Z,16.9
2019-04-04T18:56:55.723Z,16.8
2019-04-04T19:01:42.500Z,16.7
2019-04-04T19:06:31.201Z,16.6
2019-04-04T19:11:18.049Z,16.5
2019-04-04T19:16:06.281Z,16.4
2019-04-04T19:20:54.689Z,16.4
2019-04-04T19:25:43.966Z,16.3
2019-04-04T19:30:31.737Z,16.3
2019-04-04T19:35:20.946Z,16.3
2019-04-04T19:40:07.993Z,16.1
2019-04-04T19:44:56.035Z,16
2019-04-04T19:49:43.332Z,15.9
2019-04-04T19:54:31.711Z,15.9
2019-04-04T19:59:20.150Z,15.8
2019-04-04T20:04:08.310Z,15.7
2019-04-04T20:08:55.788Z,15.6
2019-04-04T20:13:43.008Z,15.6
2019-04-04T20:18:30.134Z,15.6
2019-04-04T20:23:17.302Z,15.5
2019-04-04T20:28:05.416Z,15.3
2019-04-04T20:32:52.457Z,15.3
2019-04-04T20:37:41.433Z,15.2
2019-04-04T20:42:28.563Z,15.2
2019-04-04T20:47:16.224Z,15.1
2019-04-04T20:52:03.134Z,15.1
2019-04-04T20:56:50.904Z,15
2019-04-04T21:01:38.255Z,15
2019-04-04T21:06:26.059Z,14.9
2019-04-04T21:11:13.384Z,14.8
2019-04-04T21:16:00.361Z,14.7
2019-04-04T21:20:48.230Z,14.7
2019-04-04T21:25:35.258Z,14.7
2019-04-04T21:30:22.641Z,14.6
2019-04-04T21:35:11.464Z,14.6
2019-04-04T21:39:58.803Z,14.6
2019-04-04T21:44:45.714Z,14.6
2019-04-04T21:49:32.680Z,14.5
2019-04-04T21:54:19.588Z,14.4
2019-04-04T21:59:07.239Z,14.4
2019-04-04T22:03:54.323Z,14.4
2019-04-04T22:08:42.239Z,14.3
2019-04-04T22:13:29.589Z,14.3
2019-04-04T22:18:17.025Z,14.1
2019-04-04T22:23:04.593Z,14.1
2019-04-04T22:27:52.567Z,14.1
2019-04-04T22:32:40.494Z,14.1
2019-04-04T22:37:27.882Z,14.1
2019-04-04T22:42:15.733Z,14.1
2019-04-04T22:47:03.145Z,14
2019-04-04T22:51:52.075Z,13.9
2019-04-04T22:56:39.127Z,13.8
2019-04-04T23:01:28.967Z,13.8
2019-04-04T23:06:17.707Z,13.7
2019-04-04T23:11:05.012Z,13.7
2019-04-04T23:15:52.865Z,13.7
2019-04-04T23:20:41.438Z,13.6
2019-04-04T23:25:28.354Z,13.6
2019-04-04T23:30:16.634Z,13.6
2019-04-04T23:35:03.481Z,13.5
2019-04-04T23:39:51.505Z,13.5
2019-04-04T23:44:38.604Z,13.4
2019-04-04T23:49:27.404Z,13.4
2019-04-04T23:54:14.833Z,13.3
2019-04-04T23:59:02.808Z,13.2
